sensor_id;sensor_type;location;lat;lon;timestamp;P1;durP1;ratioP1;P2;durP2;ratioP2
42714;SDS011;28351;51.480;5.706;2024-03-06T02:02:25;66.07;;;33.15;;
42714;SDS011;28351;51.480;5.706;2024-03-06T02:05:48;63.28;;;33.60;;
42714;SDS011;28351;51.480;5.706;2024-03-06T02:08:58;67.22;;;33.25;;
42714;SDS011;28351;51.480;5.706;2024-03-06T02:12:15;68.50;;;35.65;;
42714;SDS011;28351;51.480;5.706;2024-03-06T02:15:31;66.10;;;34.08;;
42714;SDS011;28351;51.480;5.706;2024-03-06T02:18:55;64.25;;;33.60;;
42714;SDS011;28351;51.480;5.706;2024-03-06T02:21:39;64.85;;;34.38;;
42714;SDS011;28351;51.480;5.706;2024-03-06T02:25:01;63.28;;;31.20;;
42714;SDS011;28351;51.480;5.706;2024-03-06T02:27:29;63.88;;;30.70;;
42714;SDS011;28351;51.480;5.706;2024-03-06T02:30:44;60.67;;;30.85;;
42714;SDS011;28351;51.480;5.706;2024-03-06T02:33:36;54.13;;;29.90;;
42714;SDS011;28351;51.480;5.706;2024-03-06T02:36:12;62.47;;;30.70;;
42714;SDS011;28351;51.480;5.706;2024-03-06T02:41:55;57.15;;;30.05;;
42714;SDS011;28351;51.480;5.706;2024-03-06T02:45:06;58.80;;;29.92;;
42714;SDS011;28351;51.480;5.706;2024-03-06T02:48:04;55.33;;;28.95;;
42714;SDS011;28351;51.480;5.706;2024-03-06T02:50:54;54.00;;;28.35;;
42714;SDS011;28351;51.480;5.706;2024-03-06T02:54:08;61.42;;;28.40;;
42714;SDS011;28351;51.480;5.706;2024-03-06T02:56:42;54.10;;;27.70;;
42714;SDS011;28351;51.480;5.706;2024-03-06T02:59:14;51.88;;;27.70;;
42714;SDS011;28351;51.480;5.706;2024-03-06T03:02:03;52.85;;;28.25;;
42714;SDS011;28351;51.480;5.706;2024-03-06T03:08:49;53.70;;;28.75;;
42714;SDS011;28351;51.480;5.706;2024-03-06T03:12:08;55.65;;;28.48;;
42714;SDS011;28351;51.480;5.706;2024-03-06T03:18:08;56.40;;;28.95;;
42714;SDS011;28351;51.480;5.706;2024-03-06T03:21:20;53.30;;;29.25;;
42714;SDS011;28351;51.480;5.706;2024-03-06T03:24:28;58.45;;;30.55;;
42714;SDS011;28351;51.480;5.706;2024-03-06T03:27:09;59.67;;;30.65;;
42714;SDS011;28351;51.480;5.706;2024-03-06T03:30:00;60.60;;;31.27;;
42714;SDS011;28351;51.480;5.706;2024-03-06T03:33:21;59.10;;;31.42;;
42714;SDS011;28351;51.480;5.706;2024-03-06T03:36:15;60.63;;;31.35;;
42714;SDS011;28351;51.480;5.706;2024-03-06T03:39:13;57.05;;;29.65;;
42714;SDS011;28351;51.480;5.706;2024-03-06T03:42:10;58.92;;;31.35;;
42714;SDS011;28351;51.480;5.706;2024-03-06T03:45:06;57.70;;;30.15;;
42714;SDS011;28351;51.480;5.706;2024-03-06T03:47:55;59.70;;;32.40;;
42714;SDS011;28351;51.480;5.706;2024-03-06T03:50:51;57.60;;;30.58;;
42714;SDS011;28351;51.480;5.706;2024-03-06T03:53:35;49.15;;;28.63;;
42714;SDS011;28351;51.480;5.706;2024-03-06T03:56:28;50.90;;;28.73;;
42714;SDS011;28351;51.480;5.706;2024-03-06T04:00:01;46.00;;;26.98;;
42714;SDS011;28351;51.480;5.706;2024-03-06T04:03:35;48.08;;;27.27;;
42714;SDS011;28351;51.480;5.706;2024-03-06T04:06:14;43.80;;;25.95;;
42714;SDS011;28351;51.480;5.706;2024-03-06T04:12:26;39.23;;;23.70;;
42714;SDS011;28351;51.480;5.706;2024-03-06T04:15:07;41.30;;;24.95;;
42714;SDS011;28351;51.480;5.706;2024-03-06T05:06:30;37.58;;;23.48;;
42714;SDS011;28351;51.480;5.706;2024-03-06T07:07:30;34.72;;;21.50;;
42714;SDS011;28351;51.480;5.706;2024-03-06T07:20:50;37.05;;;21.60;;
42714;SDS011;28351;51.480;5.706;2024-03-06T07:36:05;30.33;;;15.93;;
42714;SDS011;28351;51.480;5.706;2024-03-06T07:39:03;26.38;;;15.05;;
42714;SDS011;28351;51.480;5.706;2024-03-06T07:41:55;26.65;;;14.35;;
42714;SDS011;28351;51.480;5.706;2024-03-06T07:44:42;28.23;;;15.20;;
42714;SDS011;28351;51.480;5.706;2024-03-06T07:48:03;32.88;;;16.90;;
42714;SDS011;28351;51.480;5.706;2024-03-06T07:51:09;30.65;;;17.10;;
42714;SDS011;28351;51.480;5.706;2024-03-06T07:57:56;30.02;;;15.85;;
42714;SDS011;28351;51.480;5.706;2024-03-06T08:01:42;31.90;;;19.60;;
42714;SDS011;28351;51.480;5.706;2024-03-06T09:40:43;30.42;;;13.68;;
42714;SDS011;28351;51.480;5.706;2024-03-06T09:49:35;23.50;;;12.48;;
42714;SDS011;28351;51.480;5.706;2024-03-06T09:58:19;19.52;;;10.90;;
42714;SDS011;28351;51.480;5.706;2024-03-06T10:06:35;16.95;;;9.00;;
42714;SDS011;28351;51.480;5.706;2024-03-06T10:22:37;14.52;;;7.90;;
42714;SDS011;28351;51.480;5.706;2024-03-06T10:25:24;11.63;;;6.13;;
42714;SDS011;28351;51.480;5.706;2024-03-06T10:28:38;12.15;;;7.15;;
42714;SDS011;28351;51.480;5.706;2024-03-06T10:31:12;11.43;;;6.07;;
42714;SDS011;28351;51.480;5.706;2024-03-06T10:40:25;12.30;;;7.28;;
42714;SDS011;28351;51.480;5.706;2024-03-06T10:43:18;12.50;;;7.85;;
42714;SDS011;28351;51.480;5.706;2024-03-06T10:48:19;14.23;;;7.88;;
42714;SDS011;28351;51.480;5.706;2024-03-06T10:50:56;20.33;;;7.72;;
42714;SDS011;28351;51.480;5.706;2024-03-06T10:53:24;11.23;;;6.60;;
42714;SDS011;28351;51.480;5.706;2024-03-06T10:55:51;12.95;;;6.68;;
42714;SDS011;28351;51.480;5.706;2024-03-06T10:58:17;12.20;;;7.78;;
42714;SDS011;28351;51.480;5.706;2024-03-06T11:00:45;12.23;;;8.18;;
42714;SDS011;28351;51.480;5.706;2024-03-06T11:03:15;11.93;;;7.18;;
42714;SDS011;28351;51.480;5.706;2024-03-06T11:05:41;11.80;;;6.93;;
42714;SDS011;28351;51.480;5.706;2024-03-06T11:08:09;12.80;;;7.47;;
42714;SDS011;28351;51.480;5.706;2024-03-06T11:10:40;11.35;;;7.65;;
42714;SDS011;28351;51.480;5.706;2024-03-06T11:15:59;12.48;;;6.72;;
42714;SDS011;28351;51.480;5.706;2024-03-06T11:26:03;11.02;;;5.93;;
42714;SDS011;28351;51.480;5.706;2024-03-06T11:28:36;11.18;;;6.82;;
42714;SDS011;28351;51.480;5.706;2024-03-06T11:31:03;11.23;;;6.65;;
42714;SDS011;28351;51.480;5.706;2024-03-06T11:36:18;7.40;;;3.88;;
42714;SDS011;28351;51.480;5.706;2024-03-06T11:38:58;5.43;;;3.50;;
42714;SDS011;28351;51.480;5.706;2024-03-06T11:41:27;9.75;;;5.13;;
42714;SDS011;28351;51.480;5.706;2024-03-06T11:44:12;6.03;;;3.35;;
42714;SDS011;28351;51.480;5.706;2024-03-06T11:49:15;5.93;;;4.07;;
42714;SDS011;28351;51.480;5.706;2024-03-06T11:51:49;6.78;;;4.05;;
42714;SDS011;28351;51.480;5.706;2024-03-06T11:54:24;6.15;;;3.67;;
42714;SDS011;28351;51.480;5.706;2024-03-06T11:57:07;6.17;;;4.17;;
42714;SDS011;28351;51.480;5.706;2024-03-06T11:59:40;6.70;;;3.38;;
42714;SDS011;28351;51.480;5.706;2024-03-06T12:02:06;6.88;;;3.40;;
42714;SDS011;28351;51.480;5.706;2024-03-06T12:04:32;5.70;;;2.90;;
42714;SDS011;28351;51.480;5.706;2024-03-06T12:07:00;7.72;;;3.15;;
42714;SDS011;28351;51.480;5.706;2024-03-06T12:09:35;3.58;;;2.53;;
42714;SDS011;28351;51.480;5.706;2024-03-06T12:12:04;7.85;;;3.10;;
42714;SDS011;28351;51.480;5.706;2024-03-06T12:14:34;5.97;;;2.80;;
42714;SDS011;28351;51.480;5.706;2024-03-06T12:17:01;5.68;;;3.25;;
42714;SDS011;28351;51.480;5.706;2024-03-06T12:19:33;6.13;;;3.75;;
42714;SDS011;28351;51.480;5.706;2024-03-06T12:22:00;7.20;;;3.25;;
42714;SDS011;28351;51.480;5.706;2024-03-06T12:24:26;7.20;;;3.60;;
42714;SDS011;28351;51.480;5.706;2024-03-06T12:27:02;5.78;;;3.55;;
42714;SDS011;28351;51.480;5.706;2024-03-06T12:29:29;8.30;;;3.67;;
42714;SDS011;28351;51.480;5.706;2024-03-06T12:32:04;7.28;;;3.95;;
42714;SDS011;28351;51.480;5.706;2024-03-06T12:34:30;6.60;;;4.05;;
42714;SDS011;28351;51.480;5.706;2024-03-06T12:36:56;9.10;;;4.35;;
42714;SDS011;28351;51.480;5.706;2024-03-06T12:39:23;10.98;;;4.90;;
42714;SDS011;28351;51.480;5.706;2024-03-06T12:41:51;16.92;;;4.25;;
42714;SDS011;28351;51.480;5.706;2024-03-06T12:44:19;9.13;;;4.85;;
42714;SDS011;28351;51.480;5.706;2024-03-06T12:46:45;8.40;;;3.00;;
42714;SDS011;28351;51.480;5.706;2024-03-06T12:49:10;4.32;;;2.90;;
42714;SDS011;28351;51.480;5.706;2024-03-06T12:51:36;7.07;;;2.95;;
42714;SDS011;28351;51.480;5.706;2024-03-06T12:54:02;7.40;;;4.22;;
42714;SDS011;28351;51.480;5.706;2024-03-06T12:56:28;8.32;;;4.95;;
42714;SDS011;28351;51.480;5.706;2024-03-06T12:58:57;14.88;;;7.30;;
42714;SDS011;28351;51.480;5.706;2024-03-06T13:01:22;12.55;;;7.05;;
42714;SDS011;28351;51.480;5.706;2024-03-06T13:03:48;11.07;;;6.80;;
42714;SDS011;28351;51.480;5.706;2024-03-06T13:06:14;8.10;;;5.85;;
42714;SDS011;28351;51.480;5.706;2024-03-06T13:08:40;5.93;;;5.32;;
42714;SDS011;28351;51.480;5.706;2024-03-06T13:11:05;4.93;;;3.88;;
42714;SDS011;28351;51.480;5.706;2024-03-06T13:13:31;5.65;;;4.55;;
42714;SDS011;28351;51.480;5.706;2024-03-06T13:15:59;5.10;;;4.30;;
42714;SDS011;28351;51.480;5.706;2024-03-06T13:18:25;5.22;;;3.67;;
42714;SDS011;28351;51.480;5.706;2024-03-06T13:20:53;4.95;;;3.47;;
42714;SDS011;28351;51.480;5.706;2024-03-06T13:23:19;4.25;;;3.67;;
42714;SDS011;28351;51.480;5.706;2024-03-06T13:25:44;6.30;;;3.63;;
42714;SDS011;28351;51.480;5.706;2024-03-06T13:28:11;8.05;;;4.30;;
42714;SDS011;28351;51.480;5.706;2024-03-06T13:30:37;6.60;;;3.97;;
42714;SDS011;28351;51.480;5.706;2024-03-06T13:33:03;7.57;;;5.03;;
42714;SDS011;28351;51.480;5.706;2024-03-06T13:35:30;7.15;;;5.40;;
42714;SDS011;28351;51.480;5.706;2024-03-06T13:37:55;162.48;;;12.70;;
42714;SDS011;28351;51.480;5.706;2024-03-06T13:40:21;6.65;;;4.05;;
42714;SDS011;28351;51.480;5.706;2024-03-06T13:42:47;6.13;;;4.70;;
42714;SDS011;28351;51.480;5.706;2024-03-06T13:45:13;7.80;;;4.30;;
42714;SDS011;28351;51.480;5.706;2024-03-06T13:47:39;5.75;;;4.45;;
42714;SDS011;28351;51.480;5.706;2024-03-06T13:50:09;5.05;;;4.38;;
42714;SDS011;28351;51.480;5.706;2024-03-06T13:52:36;8.88;;;4.57;;
42714;SDS011;28351;51.480;5.706;2024-03-06T13:55:02;7.40;;;5.07;;
42714;SDS011;28351;51.480;5.706;2024-03-06T13:57:29;6.15;;;4.93;;
42714;SDS011;28351;51.480;5.706;2024-03-06T13:59:58;6.88;;;4.82;;
42714;SDS011;28351;51.480;5.706;2024-03-06T14:02:25;7.03;;;5.10;;
42714;SDS011;28351;51.480;5.706;2024-03-06T14:04:52;13.27;;;5.78;;
42714;SDS011;28351;51.480;5.706;2024-03-06T14:07:18;8.75;;;6.07;;
42714;SDS011;28351;51.480;5.706;2024-03-06T14:09:44;7.38;;;3.80;;
42714;SDS011;28351;51.480;5.706;2024-03-06T14:12:09;3.58;;;2.88;;
42714;SDS011;28351;51.480;5.706;2024-03-06T14:14:35;5.43;;;3.33;;
42714;SDS011;28351;51.480;5.706;2024-03-06T14:17:00;4.75;;;3.53;;
42714;SDS011;28351;51.480;5.706;2024-03-06T14:19:26;4.53;;;3.38;;
42714;SDS011;28351;51.480;5.706;2024-03-06T14:21:51;6.90;;;4.30;;
42714;SDS011;28351;51.480;5.706;2024-03-06T14:24:17;9.68;;;7.00;;
42714;SDS011;28351;51.480;5.706;2024-03-06T14:26:44;9.60;;;7.75;;
42714;SDS011;28351;51.480;5.706;2024-03-06T14:29:09;9.18;;;7.47;;
42714;SDS011;28351;51.480;5.706;2024-03-06T14:31:35;9.23;;;7.80;;
42714;SDS011;28351;51.480;5.706;2024-03-06T14:34:07;11.60;;;8.38;;
42714;SDS011;28351;51.480;5.706;2024-03-06T14:36:33;11.43;;;7.95;;
42714;SDS011;28351;51.480;5.706;2024-03-06T14:38:59;8.95;;;7.95;;
42714;SDS011;28351;51.480;5.706;2024-03-06T14:41:25;11.75;;;8.77;;
42714;SDS011;28351;51.480;5.706;2024-03-06T14:43:50;10.95;;;8.77;;
42714;SDS011;28351;51.480;5.706;2024-03-06T14:46:16;12.60;;;10.02;;
42714;SDS011;28351;51.480;5.706;2024-03-06T14:48:43;17.02;;;10.32;;
42714;SDS011;28351;51.480;5.706;2024-03-06T14:51:09;12.55;;;10.20;;
42714;SDS011;28351;51.480;5.706;2024-03-06T14:53:35;11.52;;;10.00;;
42714;SDS011;28351;51.480;5.706;2024-03-06T14:56:00;12.07;;;10.07;;
42714;SDS011;28351;51.480;5.706;2024-03-06T14:58:27;12.32;;;9.85;;
42714;SDS011;28351;51.480;5.706;2024-03-06T15:00:52;14.07;;;10.35;;
42714;SDS011;28351;51.480;5.706;2024-03-06T15:03:18;15.38;;;9.20;;
42714;SDS011;28351;51.480;5.706;2024-03-06T15:05:44;14.00;;;9.73;;
42714;SDS011;28351;51.480;5.706;2024-03-06T15:08:10;13.27;;;9.70;;
42714;SDS011;28351;51.480;5.706;2024-03-06T15:10:36;14.50;;;9.95;;
42714;SDS011;28351;51.480;5.706;2024-03-06T15:13:02;9.82;;;8.23;;
42714;SDS011;28351;51.480;5.706;2024-03-06T15:15:27;15.25;;;7.68;;
42714;SDS011;28351;51.480;5.706;2024-03-06T15:17:53;7.50;;;6.43;;
42714;SDS011;28351;51.480;5.706;2024-03-06T15:20:18;10.10;;;6.82;;
42714;SDS011;28351;51.480;5.706;2024-03-06T15:22:44;10.77;;;8.13;;
42714;SDS011;28351;51.480;5.706;2024-03-06T15:25:11;12.30;;;8.65;;
42714;SDS011;28351;51.480;5.706;2024-03-06T15:27:38;14.75;;;9.75;;
42714;SDS011;28351;51.480;5.706;2024-03-06T15:30:04;15.68;;;9.15;;
42714;SDS011;28351;51.480;5.706;2024-03-06T15:32:32;16.73;;;9.65;;
42714;SDS011;28351;51.480;5.706;2024-03-06T15:34:58;14.75;;;9.65;;
42714;SDS011;28351;51.480;5.706;2024-03-06T15:37:24;15.27;;;9.55;;
42714;SDS011;28351;51.480;5.706;2024-03-06T15:39:53;15.82;;;10.13;;
42714;SDS011;28351;51.480;5.706;2024-03-06T15:44:51;17.95;;;12.32;;
42714;SDS011;28351;51.480;5.706;2024-03-06T15:47:17;17.45;;;12.45;;
42714;SDS011;28351;51.480;5.706;2024-03-06T15:49:44;17.83;;;12.00;;
42714;SDS011;28351;51.480;5.706;2024-03-06T15:52:10;20.42;;;11.38;;
42714;SDS011;28351;51.480;5.706;2024-03-06T15:54:36;16.52;;;11.82;;
42714;SDS011;28351;51.480;5.706;2024-03-06T15:57:05;17.88;;;12.55;;
42714;SDS011;28351;51.480;5.706;2024-03-06T15:59:32;18.25;;;11.00;;
42714;SDS011;28351;51.480;5.706;2024-03-06T16:02:01;19.30;;;12.10;;
42714;SDS011;28351;51.480;5.706;2024-03-06T16:04:28;19.15;;;11.77;;
42714;SDS011;28351;51.480;5.706;2024-03-06T16:06:53;18.65;;;12.35;;
42714;SDS011;28351;51.480;5.706;2024-03-06T16:09:19;19.00;;;13.15;;
42714;SDS011;28351;51.480;5.706;2024-03-06T16:11:45;22.10;;;13.20;;
42714;SDS011;28351;51.480;5.706;2024-03-06T16:14:11;18.73;;;13.05;;
42714;SDS011;28351;51.480;5.706;2024-03-06T16:16:41;19.88;;;12.60;;
42714;SDS011;28351;51.480;5.706;2024-03-06T16:19:09;16.98;;;12.52;;
42714;SDS011;28351;51.480;5.706;2024-03-06T16:21:35;19.80;;;11.55;;
42714;SDS011;28351;51.480;5.706;2024-03-06T16:24:02;17.08;;;11.52;;
42714;SDS011;28351;51.480;5.706;2024-03-06T16:26:29;19.77;;;12.65;;
42714;SDS011;28351;51.480;5.706;2024-03-06T16:28:56;20.85;;;12.27;;
42714;SDS011;28351;51.480;5.706;2024-03-06T16:31:23;20.63;;;13.32;;
42714;SDS011;28351;51.480;5.706;2024-03-06T16:33:49;19.75;;;13.02;;
42714;SDS011;28351;51.480;5.706;2024-03-06T16:36:15;19.70;;;11.73;;
42714;SDS011;28351;51.480;5.706;2024-03-06T16:38:41;23.35;;;11.23;;
42714;SDS011;28351;51.480;5.706;2024-03-06T16:41:07;17.88;;;11.02;;
42714;SDS011;28351;51.480;5.706;2024-03-06T16:43:33;19.23;;;12.07;;
42714;SDS011;28351;51.480;5.706;2024-03-06T16:46:00;16.33;;;11.00;;
42714;SDS011;28351;51.480;5.706;2024-03-06T16:48:27;20.40;;;11.43;;
42714;SDS011;28351;51.480;5.706;2024-03-06T16:50:52;22.77;;;11.98;;
42714;SDS011;28351;51.480;5.706;2024-03-06T16:53:18;19.67;;;12.85;;
42714;SDS011;28351;51.480;5.706;2024-03-06T16:55:50;22.60;;;12.95;;
42714;SDS011;28351;51.480;5.706;2024-03-06T16:58:19;20.58;;;12.40;;
42714;SDS011;28351;51.480;5.706;2024-03-06T17:00:46;25.48;;;16.48;;
42714;SDS011;28351;51.480;5.706;2024-03-06T17:03:11;24.35;;;16.00;;
42714;SDS011;28351;51.480;5.706;2024-03-06T17:05:37;29.60;;;17.48;;
42714;SDS011;28351;51.480;5.706;2024-03-06T17:08:03;27.65;;;16.45;;
42714;SDS011;28351;51.480;5.706;2024-03-06T17:10:30;26.42;;;17.55;;
42714;SDS011;28351;51.480;5.706;2024-03-06T17:15:25;32.90;;;19.52;;
42714;SDS011;28351;51.480;5.706;2024-03-06T17:17:50;33.00;;;19.80;;
42714;SDS011;28351;51.480;5.706;2024-03-06T17:20:16;33.35;;;20.30;;
42714;SDS011;28351;51.480;5.706;2024-03-06T17:22:42;32.53;;;19.42;;
42714;SDS011;28351;51.480;5.706;2024-03-06T17:25:09;33.63;;;20.73;;
42714;SDS011;28351;51.480;5.706;2024-03-06T17:27:34;35.38;;;21.67;;
42714;SDS011;28351;51.480;5.706;2024-03-06T17:30:00;35.63;;;22.10;;
42714;SDS011;28351;51.480;5.706;2024-03-06T17:32:28;37.25;;;22.20;;
42714;SDS011;28351;51.480;5.706;2024-03-06T17:34:54;40.00;;;24.40;;
42714;SDS011;28351;51.480;5.706;2024-03-06T17:37:19;38.53;;;23.00;;
42714;SDS011;28351;51.480;5.706;2024-03-06T17:39:48;38.53;;;23.60;;
42714;SDS011;28351;51.480;5.706;2024-03-06T17:44:39;42.70;;;22.98;;
42714;SDS011;28351;51.480;5.706;2024-03-06T17:47:17;38.92;;;24.55;;
42714;SDS011;28351;51.480;5.706;2024-03-06T17:53:14;42.53;;;25.17;;
42714;SDS011;28351;51.480;5.706;2024-03-06T17:55:40;254.95;;;29.67;;
42714;SDS011;28351;51.480;5.706;2024-03-06T18:19:08;57.45;;;29.80;;
42714;SDS011;28351;51.480;5.706;2024-03-06T18:22:11;57.00;;;30.60;;
42714;SDS011;28351;51.480;5.706;2024-03-06T23:34:35;94.25;;;37.83;;
42714;SDS011;28351;51.480;5.706;2024-03-06T23:38:01;95.43;;;39.13;;
